Maersk Taiki — 9VIG — position and weather

sailwx.info

Track history (hours):
 
Tides and Currents Weather Stations Pressure Air Temp Water Temp Dewpoint Dewpoint Depression Visibility Wind Speed Wind Dir Waves Ship Positions

Maersk Taiki

Last reported at 2017-Oct-23 08:00 UTC. Time now 2017-Oct-23 08:20 UTC.
Position N 40°44' E 029°16'.

Type: Cargo ship. MMSI: 564488000.

Date/timePositionNaut miles runAvg speedWind from/ knotsBaromVisibWave heightAir tempDewpointWater temp
2017-Oct-23 08:00N 40°44' E 029°16'611.1
2017-Oct-23 07:29N 40°45' E 029°24'5 0.2
2017-Oct-22 11:01N 40°45' E 029°30'0 9.2
2017-Oct-22 11:00N 40°45' E 029°30'510.5
2017-Oct-22 10:30N 40°43' E 029°23'4 7.8
2017-Oct-22 10:00N 40°43' E 029°18'611.4
2017-Oct-22 09:30N 40°43' E 029°11'918.6
2017-Oct-22 09:00N 40°43' E 028°58'8317.9
2017-Oct-22 04:24N 40°34' E 027°10'718.3
2017-Oct-22 04:00N 40°31' E 027°02'3514.8
2017-Oct-22 01:39N 40°12' E 026°23'1213.6
2017-Oct-22 00:47N 40°02' E 026°15'4 9.9
2017-Oct-22 00:25N 40°01' E 026°10'512.5
2017-Oct-22 00:00N 39°60' E 026°04'816.2
2017-Oct-21 23:30N 39°55' E 025°55'917.5
2017-Oct-21 23:00N 39°48' E 025°49'918.0
2017-Oct-21 22:30N 39°39' E 025°45'1218.5
2017-Oct-21 21:51N 39°29' E 025°38'8418.4
2017-Oct-21 17:16N 38°14' E 024°48'518.2
2017-Oct-21 17:00N 38°10' E 024°45'1417.8
2017-Oct-21 16:13N 37°57' E 024°37'1918.1
2017-Oct-21 15:10N 37°44' E 024°19'1118.5
2017-Oct-21 14:34N 37°37' E 024°09'1018.4
2017-Oct-21 14:01N 37°35' E 023°56'918.6
2017-Oct-21 13:30N 37°39' E 023°45'917.5
2017-Oct-21 13:00N 37°46' E 023°39'816.1
2017-Oct-21 12:30N 37°54' E 023°37'4 7.8
2017-Oct-21 12:01N 37°57' E 023°36'0 0.4
2017-Oct-21 11:28N 37°58' E 023°37'0 0.0
2017-Oct-21 10:58N 37°58' E 023°37'0 0.0
2017-Oct-21 10:28N 37°58' E 023°37'0 0.0
2017-Oct-21 09:58N 37°58' E 023°37'0 0.0
2017-Oct-21 09:28N 37°58' E 023°37'0 0.0
2017-Oct-21 08:58N 37°58' E 023°37'0 0.0
2017-Oct-21 08:28N 37°58' E 023°37'0 0.0
2017-Oct-21 07:58N 37°58' E 023°37'0 0.0
2017-Oct-21 07:28N 37°58' E 023°37'0 0.0
2017-Oct-21 06:58N 37°58' E 023°37'0 0.6
2017-Oct-21 06:30N 37°57' E 023°36'2 4.6
2017-Oct-21 06:00N 37°55' E 023°36'1 1.9
2017-Oct-21 05:30N 37°54' E 023°37'1 1.7
2017-Oct-21 05:01N 37°54' E 023°37'0 0.4
2017-Oct-21 04:31N 37°54' E 023°37'0 0.4
2017-Oct-21 04:01N 37°54' E 023°37'1 1.0
2017-Oct-21 03:31N 37°53' E 023°37'0 0.4
2017-Oct-21 03:01N 37°53' E 023°37'0 0.8
2017-Oct-21 02:31N 37°53' E 023°37'612.3
2017-Oct-21 02:01N 37°48' E 023°41'917.6
2017-Oct-21 01:31N 37°39' E 023°45'816.0
2017-Oct-21 00:59N 37°31' E 023°43'816.3
2017-Oct-21 00:30N 37°23' E 023°41'1716.8
2017-Oct-20 23:30N 37°07' E 023°38'1516.9
2017-Oct-20 22:36N 36°52' E 023°34'717.1
2017-Oct-20 22:09N 36°45' E 023°30'35717.2
2017-Oct-20 01:27N 37°45' E 016°08'818.4
2017-Oct-20 01:00N 37°47' E 015°58'918.5
2017-Oct-20 00:30N 37°49' E 015°47'917.9
2017-Oct-19 23:59N 37°54' E 015°37'916.4
2017-Oct-19 23:25N 38°03' E 015°33'614.8
2017-Oct-19 23:00N 38°09' E 015°35'916.3
2017-Oct-19 22:27N 38°17' E 015°41'817.2
2017-Oct-19 21:58N 38°24' E 015°36'918.0
2017-Oct-19 21:29N 38°30' E 015°27'918.2
2017-Oct-19 21:00N 38°36' E 015°19'1018.0
2017-Oct-19 20:28N 38°43' E 015°10'25418.6
2017-Oct-19 06:47N 41°34' E 011°06'518.4
2017-Oct-19 06:30N 41°38' E 011°01'918.0
2017-Oct-19 06:00N 41°44' E 010°51'917.7
2017-Oct-19 05:28N 41°51' E 010°42'917.7
2017-Oct-19 04:59N 41°56' E 010°34'1517.8
2017-Oct-19 04:08N 42°07' E 010°19'318.1
2017-Oct-19 03:58N 42°09' E 010°16'1018.0
2017-Oct-19 03:24N 42°15' E 010°05'4316.9
2017-Oct-19 00:51N 42°58' E 010°00'718.5
2017-Oct-19 00:29N 43°04' E 010°03'918.2
2017-Oct-19 00:01N 43°13' E 010°06'918.1
2017-Oct-18 23:30N 43°22' E 010°09'816.1
2017-Oct-18 23:00N 43°29' E 010°12'5 9.7
2017-Oct-18 22:30N 43°32' E 010°17'2 4.5
2017-Oct-18 22:00N 43°34' E 010°18'0 0.7
2017-Oct-18 21:27N 43°35' E 010°18'0 0.0
2017-Oct-18 21:00N 43°35' E 010°18'0 0.0
2017-Oct-18 20:30N 43°35' E 010°18'0 0.0
2017-Oct-18 20:00N 43°35' E 010°18'0 0.0
2017-Oct-18 19:30N 43°35' E 010°18'0 0.0
2017-Oct-18 19:00N 43°35' E 010°18'0 0.0
2017-Oct-18 18:30N 43°35' E 010°18'0 0.0
2017-Oct-18 18:00N 43°35' E 010°18'0 0.0
2017-Oct-18 17:30N 43°35' E 010°18'0 0.0
2017-Oct-18 17:00N 43°35' E 010°18'0 0.0
2017-Oct-18 16:30N 43°35' E 010°18'0 0.0
2017-Oct-18 16:00N 43°35' E 010°18'0 0.0
2017-Oct-18 15:30N 43°35' E 010°18'0 0.0
2017-Oct-18 15:01N 43°35' E 010°18'0 0.0
2017-Oct-18 14:00N 43°35' E 010°18'0 0.0
2017-Oct-18 13:30N 43°35' E 010°18'0 0.0
2017-Oct-18 13:00N 43°35' E 010°18'0 0.0
2017-Oct-18 12:30N 43°35' E 010°18'0 0.0
2017-Oct-18 12:00N 43°35' E 010°18'0 0.0
2017-Oct-18 11:31N 43°35' E 010°18'0 0.0
2017-Oct-18 11:00N 43°35' E 010°18'0 0.0
2017-Oct-18 10:30N 43°35' E 010°18'0 0.0
2017-Oct-18 10:01N 43°35' E 010°18'0 0.0
2017-Oct-18 09:30N 43°35' E 010°18'0 0.0
2017-Oct-18 09:01N 43°35' E 010°18'0 0.0
2017-Oct-18 08:31N 43°35' E 010°18'0 0.0
2017-Oct-18 08:01N 43°35' E 010°18'0 0.0
2017-Oct-18 07:30N 43°35' E 010°18'0 0.0
2017-Oct-18 07:01N 43°35' E 010°18'0 0.0
2017-Oct-18 06:30N 43°35' E 010°18'0 0.0
2017-Oct-18 05:57N 43°35' E 010°18'0 0.0
2017-Oct-18 05:30N 43°35' E 010°18'0 0.0
2017-Oct-18 05:01N 43°35' E 010°18'0 0.0
2017-Oct-18 04:31N 43°35' E 010°18'0 0.0
2017-Oct-18 04:01N 43°35' E 010°18'0 0.0
2017-Oct-18 03:31N 43°35' E 010°18'0 0.0
2017-Oct-18 03:00N 43°35' E 010°18'0 0.0
2017-Oct-18 02:26N 43°35' E 010°18'0 0.0
2017-Oct-18 02:01N 43°35' E 010°18'0 0.0
2017-Oct-18 01:30N 43°35' E 010°18'0 0.0
2017-Oct-18 01:01N 43°35' E 010°18'0 0.0
2017-Oct-18 00:31N 43°35' E 010°18'0 0.0
2017-Oct-18 00:00N 43°35' E 010°18'0 0.0
2017-Oct-17 23:30N 43°35' E 010°18'0 0.0
2017-Oct-17 23:01N 43°35' E 010°18'0 0.0
2017-Oct-17 22:31N 43°35' E 010°18'0 0.0
2017-Oct-17 22:00N 43°35' E 010°18'2 3.9
2017-Oct-17 21:30N 43°33' E 010°17'2 4.5
2017-Oct-17 21:00N 43°31' E 010°16'2 3.5
2017-Oct-17 20:31N 43°30' E 010°14'2 3.9
2017-Oct-17 20:00N 43°28' E 010°12'713.3
2017-Oct-17 19:30N 43°23' E 010°06'714.4
2017-Oct-17 19:00N 43°19' E 009°59'714.7
2017-Oct-17 18:30N 43°16' E 009°49'714.7
2017-Oct-17 18:00N 43°14' E 009°40'714.7
2017-Oct-17 17:30N 43°11' E 009°30'714.8
2017-Oct-17 17:00N 43°08' E 009°21'714.5
2017-Oct-17 16:30N 43°06' E 009°12'714.2
2017-Oct-17 16:00N 43°04' E 009°02'714.2
2017-Oct-17 15:30N 43°01' E 008°53'714.1
2017-Oct-17 15:00N 42°59' E 008°44'714.1
2017-Oct-17 14:30N 42°56' E 008°35'714.3
2017-Oct-17 14:00N 42°53' E 008°26'714.2
2017-Oct-17 13:30N 42°51' E 008°17'713.7
2017-Oct-17 13:00N 42°49' E 008°08'714.2
2017-Oct-17 12:29N 42°47' E 007°59'714.3
2017-Oct-17 12:00N 42°45' E 007°50'714.5
2017-Oct-17 11:31N 42°42' E 007°40'814.7
2017-Oct-17 10:56N 42°40' E 007°30'914.7
2017-Oct-17 10:18N 42°37' E 007°18'414.7
2017-Oct-17 10:00N 42°35' E 007°12'815.3
2017-Oct-17 09:30N 42°33' E 007°02'714.8
2017-Oct-17 09:00N 42°30' E 006°53'714.5
2017-Oct-17 08:30N 42°28' E 006°43'714.1
2017-Oct-17 08:01N 42°26' E 006°34'917.9
2017-Oct-17 07:31N 42°22' E 006°23'917.9
2017-Oct-17 07:00N 42°19' E 006°11'917.9
2017-Oct-17 06:30N 42°17' E 006°00'917.7
2017-Oct-17 06:00N 42°14' E 005°49'917.8
2017-Oct-17 05:30N 42°11' E 005°38'917.9
2017-Oct-17 05:01N 42°08' E 005°26'1217.7
2017-Oct-17 04:21N 42°04' E 005°11'717.8
2017-Oct-17 03:57N 42°01' E 005°02'1318.1
2017-Oct-17 03:16N 41°57' E 004°47'518.2
2017-Oct-17 03:00N 41°56' E 004°40'1318.4
2017-Oct-17 02:16N 41°51' E 004°23'718.2
2017-Oct-17 01:53N 41°49' E 004°15'718.0
2017-Oct-17 01:30N 41°47' E 004°06'91 3.3
2017-Oct-15 22:12N 41°18' E 002°10'7 8.0
2017-Oct-15 21:22N 41°12' E 002°11'6 1.7
2017-Oct-15 18:08N 41°07' E 002°09'1 0.8
2017-Oct-15 17:18N 41°06' E 002°08'0 0.8
2017-Oct-15 16:50N 41°06' E 002°08'1 0.8
2017-Oct-15 16:10N 41°05' E 002°08'0 0.3
2017-Oct-15 15:38N 41°05' E 002°07'0 0.4
2017-Oct-15 14:37N 41°05' E 002°07'914.0
2017-Oct-15 13:58N 40°58' E 002°01'19617.0
2017-Oct-15 02:27N 38°06' W 000°03'1815.9
2017-Oct-15 01:19N 37°51' W 000°15'715.9
2017-Oct-15 00:51N 37°45' W 000°19'516.0
2017-Oct-15 00:30N 37°40' W 000°23'816.0
2017-Oct-15 00:00N 37°34' W 000°30'816.2
2017-Oct-14 23:29N 37°28' W 000°38'816.3
2017-Oct-14 23:00N 37°23' W 000°45'816.2
2017-Oct-14 22:30N 37°18' W 000°53'1615.9
2017-Oct-14 21:28N 37°07' W 001°08'1915.8
2017-Oct-14 20:18N 36°55' W 001°26'815.9
2017-Oct-14 19:48N 36°49' W 001°33'5815.6
2017-Oct-14 16:07N 36°20' W 002°35'215.6
2017-Oct-14 16:00N 36°20' W 002°37'12816.3
2017-Oct-14 08:09N 35°59' W 005°13'216.0
2017-Oct-14 08:00N 35°58' W 005°16'815.4
2017-Oct-14 07:30N 35°57' W 005°26'5 0.5
2017-Oct-13 21:26N 35°54' W 005°30'2 4.5
2017-Oct-13 20:54N 35°55' W 005°33'1 2.7
2017-Oct-13 20:30N 35°54' W 005°34'0 0.1
2017-Oct-13 18:39N 35°54' W 005°34'0 2.5
2017-Oct-13 18:28N 35°54' W 005°34'  
Track history (hours):
 
Tides and Currents Weather Stations Pressure Air Temp Water Temp Dewpoint Dewpoint Depression Visibility Wind Speed Wind Dir Waves Ship Positions

Maersk Taiki

Last reported at 2017-Oct-23 08:00 UTC. Time now 2017-Oct-23 08:20 UTC.
Position N 40°44' E 029°16'.

Type: Cargo ship. MMSI: 564488000.

Date/timePositionNaut miles runAvg speedWind from/ knotsBaromVisibWave heightAir tempDewpointWater temp
2017-Oct-23 08:00N 40°44' E 029°16'611.1
2017-Oct-23 07:29N 40°45' E 029°24'5 0.2
2017-Oct-22 11:01N 40°45' E 029°30'0 9.2
2017-Oct-22 11:00N 40°45' E 029°30'510.5
2017-Oct-22 10:30N 40°43' E 029°23'4 7.8
2017-Oct-22 10:00N 40°43' E 029°18'611.4
2017-Oct-22 09:30N 40°43' E 029°11'918.6
2017-Oct-22 09:00N 40°43' E 028°58'8317.9
2017-Oct-22 04:24N 40°34' E 027°10'718.3
2017-Oct-22 04:00N 40°31' E 027°02'3514.8
2017-Oct-22 01:39N 40°12' E 026°23'1213.6
2017-Oct-22 00:47N 40°02' E 026°15'4 9.9
2017-Oct-22 00:25N 40°01' E 026°10'512.5
2017-Oct-22 00:00N 39°60' E 026°04'816.2
2017-Oct-21 23:30N 39°55' E 025°55'917.5
2017-Oct-21 23:00N 39°48' E 025°49'918.0
2017-Oct-21 22:30N 39°39' E 025°45'1218.5
2017-Oct-21 21:51N 39°29' E 025°38'8418.4
2017-Oct-21 17:16N 38°14' E 024°48'518.2
2017-Oct-21 17:00N 38°10' E 024°45'1417.8
2017-Oct-21 16:13N 37°57' E 024°37'1918.1
2017-Oct-21 15:10N 37°44' E 024°19'1118.5
2017-Oct-21 14:34N 37°37' E 024°09'1018.4
2017-Oct-21 14:01N 37°35' E 023°56'918.6
2017-Oct-21 13:30N 37°39' E 023°45'917.5
2017-Oct-21 13:00N 37°46' E 023°39'816.1
2017-Oct-21 12:30N 37°54' E 023°37'4 7.8
2017-Oct-21 12:01N 37°57' E 023°36'0 0.4
2017-Oct-21 11:28N 37°58' E 023°37'0 0.0
2017-Oct-21 10:58N 37°58' E 023°37'0 0.0
2017-Oct-21 10:28N 37°58' E 023°37'0 0.0
2017-Oct-21 09:58N 37°58' E 023°37'0 0.0
2017-Oct-21 09:28N 37°58' E 023°37'0 0.0
2017-Oct-21 08:58N 37°58' E 023°37'0 0.0
2017-Oct-21 08:28N 37°58' E 023°37'0 0.0
2017-Oct-21 07:58N 37°58' E 023°37'0 0.0
2017-Oct-21 07:28N 37°58' E 023°37'0 0.0
2017-Oct-21 06:58N 37°58' E 023°37'0 0.6
2017-Oct-21 06:30N 37°57' E 023°36'2 4.6
2017-Oct-21 06:00N 37°55' E 023°36'1 1.9
2017-Oct-21 05:30N 37°54' E 023°37'1 1.7
2017-Oct-21 05:01N 37°54' E 023°37'0 0.4
2017-Oct-21 04:31N 37°54' E 023°37'0 0.4
2017-Oct-21 04:01N 37°54' E 023°37'1 1.0
2017-Oct-21 03:31N 37°53' E 023°37'0 0.4
2017-Oct-21 03:01N 37°53' E 023°37'0 0.8
2017-Oct-21 02:31N 37°53' E 023°37'612.3
2017-Oct-21 02:01N 37°48' E 023°41'917.6
2017-Oct-21 01:31N 37°39' E 023°45'816.0
2017-Oct-21 00:59N 37°31' E 023°43'816.3
2017-Oct-21 00:30N 37°23' E 023°41'1716.8
2017-Oct-20 23:30N 37°07' E 023°38'1516.9
2017-Oct-20 22:36N 36°52' E 023°34'717.1
2017-Oct-20 22:09N 36°45' E 023°30'35717.2
2017-Oct-20 01:27N 37°45' E 016°08'818.4
2017-Oct-20 01:00N 37°47' E 015°58'918.5
2017-Oct-20 00:30N 37°49' E 015°47'917.9
2017-Oct-19 23:59N 37°54' E 015°37'916.4
2017-Oct-19 23:25N 38°03' E 015°33'614.8
2017-Oct-19 23:00N 38°09' E 015°35'916.3
2017-Oct-19 22:27N 38°17' E 015°41'817.2
2017-Oct-19 21:58N 38°24' E 015°36'918.0
2017-Oct-19 21:29N 38°30' E 015°27'918.2
2017-Oct-19 21:00N 38°36' E 015°19'1018.0
2017-Oct-19 20:28N 38°43' E 015°10'25418.6
2017-Oct-19 06:47N 41°34' E 011°06'518.4
2017-Oct-19 06:30N 41°38' E 011°01'918.0
2017-Oct-19 06:00N 41°44' E 010°51'917.7
2017-Oct-19 05:28N 41°51' E 010°42'917.7
2017-Oct-19 04:59N 41°56' E 010°34'1517.8
2017-Oct-19 04:08N 42°07' E 010°19'318.1
2017-Oct-19 03:58N 42°09' E 010°16'1018.0
2017-Oct-19 03:24N 42°15' E 010°05'4316.9
2017-Oct-19 00:51N 42°58' E 010°00'718.5
2017-Oct-19 00:29N 43°04' E 010°03'918.2
2017-Oct-19 00:01N 43°13' E 010°06'918.1
2017-Oct-18 23:30N 43°22' E 010°09'816.1
2017-Oct-18 23:00N 43°29' E 010°12'5 9.7
2017-Oct-18 22:30N 43°32' E 010°17'2 4.5
2017-Oct-18 22:00N 43°34' E 010°18'0 0.7
2017-Oct-18 21:27N 43°35' E 010°18'0 0.0
2017-Oct-18 21:00N 43°35' E 010°18'0 0.0
2017-Oct-18 20:30N 43°35' E 010°18'0 0.0
2017-Oct-18 20:00N 43°35' E 010°18'0 0.0
2017-Oct-18 19:30N 43°35' E 010°18'0 0.0
2017-Oct-18 19:00N 43°35' E 010°18'0 0.0
2017-Oct-18 18:30N 43°35' E 010°18'0 0.0
2017-Oct-18 18:00N 43°35' E 010°18'0 0.0
2017-Oct-18 17:30N 43°35' E 010°18'0 0.0
2017-Oct-18 17:00N 43°35' E 010°18'0 0.0
2017-Oct-18 16:30N 43°35' E 010°18'0 0.0
2017-Oct-18 16:00N 43°35' E 010°18'0 0.0
2017-Oct-18 15:30N 43°35' E 010°18'0 0.0
2017-Oct-18 15:01N 43°35' E 010°18'0 0.0
2017-Oct-18 14:00N 43°35' E 010°18'0 0.0
2017-Oct-18 13:30N 43°35' E 010°18'0 0.0
2017-Oct-18 13:00N 43°35' E 010°18'0 0.0
2017-Oct-18 12:30N 43°35' E 010°18'0 0.0
2017-Oct-18 12:00N 43°35' E 010°18'0 0.0
2017-Oct-18 11:31N 43°35' E 010°18'0 0.0
2017-Oct-18 11:00N 43°35' E 010°18'0 0.0
2017-Oct-18 10:30N 43°35' E 010°18'0 0.0
2017-Oct-18 10:01N 43°35' E 010°18'0 0.0
2017-Oct-18 09:30N 43°35' E 010°18'0 0.0
2017-Oct-18 09:01N 43°35' E 010°18'0 0.0
2017-Oct-18 08:31N 43°35' E 010°18'0 0.0
2017-Oct-18 08:01N 43°35' E 010°18'0 0.0
2017-Oct-18 07:30N 43°35' E 010°18'0 0.0
2017-Oct-18 07:01N 43°35' E 010°18'0 0.0
2017-Oct-18 06:30N 43°35' E 010°18'0 0.0
2017-Oct-18 05:57N 43°35' E 010°18'0 0.0
2017-Oct-18 05:30N 43°35' E 010°18'0 0.0
2017-Oct-18 05:01N 43°35' E 010°18'0 0.0
2017-Oct-18 04:31N 43°35' E 010°18'0 0.0
2017-Oct-18 04:01N 43°35' E 010°18'0 0.0
2017-Oct-18 03:31N 43°35' E 010°18'0 0.0
2017-Oct-18 03:00N 43°35' E 010°18'0 0.0
2017-Oct-18 02:26N 43°35' E 010°18'0 0.0
2017-Oct-18 02:01N 43°35' E 010°18'0 0.0
2017-Oct-18 01:30N 43°35' E 010°18'0 0.0
2017-Oct-18 01:01N 43°35' E 010°18'0 0.0
2017-Oct-18 00:31N 43°35' E 010°18'0 0.0
2017-Oct-18 00:00N 43°35' E 010°18'0 0.0
2017-Oct-17 23:30N 43°35' E 010°18'0 0.0
2017-Oct-17 23:01N 43°35' E 010°18'0 0.0
2017-Oct-17 22:31N 43°35' E 010°18'0 0.0
2017-Oct-17 22:00N 43°35' E 010°18'2 3.9
2017-Oct-17 21:30N 43°33' E 010°17'2 4.5
2017-Oct-17 21:00N 43°31' E 010°16'2 3.5
2017-Oct-17 20:31N 43°30' E 010°14'2 3.9
2017-Oct-17 20:00N 43°28' E 010°12'713.3
2017-Oct-17 19:30N 43°23' E 010°06'714.4
2017-Oct-17 19:00N 43°19' E 009°59'714.7
2017-Oct-17 18:30N 43°16' E 009°49'714.7
2017-Oct-17 18:00N 43°14' E 009°40'714.7
2017-Oct-17 17:30N 43°11' E 009°30'714.8
2017-Oct-17 17:00N 43°08' E 009°21'714.5
2017-Oct-17 16:30N 43°06' E 009°12'714.2
2017-Oct-17 16:00N 43°04' E 009°02'714.2
2017-Oct-17 15:30N 43°01' E 008°53'714.1
2017-Oct-17 15:00N 42°59' E 008°44'714.1
2017-Oct-17 14:30N 42°56' E 008°35'714.3
2017-Oct-17 14:00N 42°53' E 008°26'714.2
2017-Oct-17 13:30N 42°51' E 008°17'713.7
2017-Oct-17 13:00N 42°49' E 008°08'714.2
2017-Oct-17 12:29N 42°47' E 007°59'714.3
2017-Oct-17 12:00N 42°45' E 007°50'714.5
2017-Oct-17 11:31N 42°42' E 007°40'814.7
2017-Oct-17 10:56N 42°40' E 007°30'914.7
2017-Oct-17 10:18N 42°37' E 007°18'414.7
2017-Oct-17 10:00N 42°35' E 007°12'815.3
2017-Oct-17 09:30N 42°33' E 007°02'714.8
2017-Oct-17 09:00N 42°30' E 006°53'714.5
2017-Oct-17 08:30N 42°28' E 006°43'714.1
2017-Oct-17 08:01N 42°26' E 006°34'917.9
2017-Oct-17 07:31N 42°22' E 006°23'917.9
2017-Oct-17 07:00N 42°19' E 006°11'917.9
2017-Oct-17 06:30N 42°17' E 006°00'917.7
2017-Oct-17 06:00N 42°14' E 005°49'917.8
2017-Oct-17 05:30N 42°11' E 005°38'917.9
2017-Oct-17 05:01N 42°08' E 005°26'1217.7
2017-Oct-17 04:21N 42°04' E 005°11'717.8
2017-Oct-17 03:57N 42°01' E 005°02'1318.1
2017-Oct-17 03:16N 41°57' E 004°47'518.2
2017-Oct-17 03:00N 41°56' E 004°40'1318.4
2017-Oct-17 02:16N 41°51' E 004°23'718.2
2017-Oct-17 01:53N 41°49' E 004°15'718.0
2017-Oct-17 01:30N 41°47' E 004°06'91 3.3
2017-Oct-15 22:12N 41°18' E 002°10'7 8.0
2017-Oct-15 21:22N 41°12' E 002°11'6 1.7
2017-Oct-15 18:08N 41°07' E 002°09'1 0.8
2017-Oct-15 17:18N 41°06' E 002°08'0 0.8
2017-Oct-15 16:50N 41°06' E 002°08'1 0.8
2017-Oct-15 16:10N 41°05' E 002°08'0 0.3
2017-Oct-15 15:38N 41°05' E 002°07'0 0.4
2017-Oct-15 14:37N 41°05' E 002°07'914.0
2017-Oct-15 13:58N 40°58' E 002°01'19617.0
2017-Oct-15 02:27N 38°06' W 000°03'1815.9
2017-Oct-15 01:19N 37°51' W 000°15'715.9
2017-Oct-15 00:51N 37°45' W 000°19'516.0
2017-Oct-15 00:30N 37°40' W 000°23'816.0
2017-Oct-15 00:00N 37°34' W 000°30'816.2
2017-Oct-14 23:29N 37°28' W 000°38'816.3
2017-Oct-14 23:00N 37°23' W 000°45'816.2
2017-Oct-14 22:30N 37°18' W 000°53'1615.9
2017-Oct-14 21:28N 37°07' W 001°08'1915.8
2017-Oct-14 20:18N 36°55' W 001°26'815.9
2017-Oct-14 19:48N 36°49' W 001°33'5815.6
2017-Oct-14 16:07N 36°20' W 002°35'215.6
2017-Oct-14 16:00N 36°20' W 002°37'12816.3
2017-Oct-14 08:09N 35°59' W 005°13'216.0
2017-Oct-14 08:00N 35°58' W 005°16'815.4
2017-Oct-14 07:30N 35°57' W 005°26'5 0.5
2017-Oct-13 21:26N 35°54' W 005°30'2 4.5
2017-Oct-13 20:54N 35°55' W 005°33'1 2.7
2017-Oct-13 20:30N 35°54' W 005°34'0 0.1
2017-Oct-13 18:39N 35°54' W 005°34'0 2.5
2017-Oct-13 18:28N 35°54' W 005°34'  

Dump ship's entire track history